sensor_id;sensor_type;location;lat;lon;timestamp;P1;durP1;ratioP1;P2;durP2;ratioP2
6177;SDS011;3122;48.208;11.174;2023-06-05T00:04:19;6.37;;;4.93;;
6177;SDS011;3122;48.208;11.174;2023-06-05T00:09:21;6.40;;;5.33;;
6177;SDS011;3122;48.208;11.174;2023-06-05T00:14:21;7.70;;;5.40;;
6177;SDS011;3122;48.208;11.174;2023-06-05T00:19:22;6.20;;;5.60;;
6177;SDS011;3122;48.208;11.174;2023-06-05T00:24:22;6.83;;;5.67;;
6177;SDS011;3122;48.208;11.174;2023-06-05T00:29:23;6.70;;;6.00;;
6177;SDS011;3122;48.208;11.174;2023-06-05T00:34:23;6.83;;;5.20;;
6177;SDS011;3122;48.208;11.174;2023-06-05T00:39:24;6.20;;;5.60;;
6177;SDS011;3122;48.208;11.174;2023-06-05T00:44:25;6.70;;;6.10;;
6177;SDS011;3122;48.208;11.174;2023-06-05T00:49:25;9.57;;;6.33;;
6177;SDS011;3122;48.208;11.174;2023-06-05T00:54:26;6.87;;;6.03;;
6177;SDS011;3122;48.208;11.174;2023-06-05T00:59:28;7.63;;;6.83;;
6177;SDS011;3122;48.208;11.174;2023-06-05T01:04:32;10.20;;;6.30;;
6177;SDS011;3122;48.208;11.174;2023-06-05T01:09:32;9.53;;;8.40;;
6177;SDS011;3122;48.208;11.174;2023-06-05T01:14:34;9.63;;;7.50;;
6177;SDS011;3122;48.208;11.174;2023-06-05T01:19:36;9.03;;;7.67;;
6177;SDS011;3122;48.208;11.174;2023-06-05T01:24:39;11.40;;;8.53;;
6177;SDS011;3122;48.208;11.174;2023-06-05T01:34:53;9.13;;;8.00;;
6177;SDS011;3122;48.208;11.174;2023-06-05T01:39:55;13.10;;;9.53;;
6177;SDS011;3122;48.208;11.174;2023-06-05T01:44:57;10.63;;;8.30;;
6177;SDS011;3122;48.208;11.174;2023-06-05T01:49:59;10.80;;;8.80;;
6177;SDS011;3122;48.208;11.174;2023-06-05T01:55:00;9.57;;;8.57;;
6177;SDS011;3122;48.208;11.174;2023-06-05T02:00:02;11.33;;;8.77;;
6177;SDS011;3122;48.208;11.174;2023-06-05T02:05:04;10.20;;;8.77;;
6177;SDS011;3122;48.208;11.174;2023-06-05T02:10:05;10.40;;;8.77;;
6177;SDS011;3122;48.208;11.174;2023-06-05T02:15:07;12.97;;;9.70;;
6177;SDS011;3122;48.208;11.174;2023-06-05T02:20:13;12.17;;;9.93;;
6177;SDS011;3122;48.208;11.174;2023-06-05T02:25:15;10.97;;;9.87;;
6177;SDS011;3122;48.208;11.174;2023-06-05T02:30:16;10.83;;;9.80;;
6177;SDS011;3122;48.208;11.174;2023-06-05T02:35:17;13.73;;;9.50;;
6177;SDS011;3122;48.208;11.174;2023-06-05T02:40:17;10.73;;;9.63;;
6177;SDS011;3122;48.208;11.174;2023-06-05T02:45:18;16.93;;;10.30;;
6177;SDS011;3122;48.208;11.174;2023-06-05T02:50:18;14.57;;;9.40;;
6177;SDS011;3122;48.208;11.174;2023-06-05T02:55:19;13.30;;;10.60;;
6177;SDS011;3122;48.208;11.174;2023-06-05T03:00:20;10.23;;;9.23;;
6177;SDS011;3122;48.208;11.174;2023-06-05T03:05:22;11.63;;;9.80;;
6177;SDS011;3122;48.208;11.174;2023-06-05T03:10:24;12.70;;;9.70;;
6177;SDS011;3122;48.208;11.174;2023-06-05T03:15:24;10.27;;;9.10;;
6177;SDS011;3122;48.208;11.174;2023-06-05T03:20:25;13.33;;;10.27;;
6177;SDS011;3122;48.208;11.174;2023-06-05T03:25:25;10.53;;;9.43;;
6177;SDS011;3122;48.208;11.174;2023-06-05T03:30:27;11.57;;;9.13;;
6177;SDS011;3122;48.208;11.174;2023-06-05T03:35:28;11.60;;;10.40;;
6177;SDS011;3122;48.208;11.174;2023-06-05T03:40:28;11.83;;;10.00;;
6177;SDS011;3122;48.208;11.174;2023-06-05T03:45:29;14.87;;;10.73;;
6177;SDS011;3122;48.208;11.174;2023-06-05T03:50:30;19.80;;;11.20;;
6177;SDS011;3122;48.208;11.174;2023-06-05T03:55:35;11.30;;;10.03;;
6177;SDS011;3122;48.208;11.174;2023-06-05T04:00:41;12.50;;;10.67;;
6177;SDS011;3122;48.208;11.174;2023-06-05T04:05:46;11.37;;;9.93;;
6177;SDS011;3122;48.208;11.174;2023-06-05T04:10:46;14.20;;;11.43;;
6177;SDS011;3122;48.208;11.174;2023-06-05T04:15:47;11.87;;;10.30;;
6177;SDS011;3122;48.208;11.174;2023-06-05T04:20:48;16.40;;;11.50;;
6177;SDS011;3122;48.208;11.174;2023-06-05T04:25:49;13.53;;;10.00;;
6177;SDS011;3122;48.208;11.174;2023-06-05T04:30:53;12.10;;;10.50;;
6177;SDS011;3122;48.208;11.174;2023-06-05T04:35:55;14.20;;;10.53;;
6177;SDS011;3122;48.208;11.174;2023-06-05T04:40:56;16.30;;;11.07;;
6177;SDS011;3122;48.208;11.174;2023-06-05T04:45:56;12.30;;;10.03;;
6177;SDS011;3122;48.208;11.174;2023-06-05T04:50:57;12.30;;;10.50;;
6177;SDS011;3122;48.208;11.174;2023-06-05T04:55:57;14.13;;;10.77;;
6177;SDS011;3122;48.208;11.174;2023-06-05T05:01:00;14.83;;;11.20;;
6177;SDS011;3122;48.208;11.174;2023-06-05T05:06:05;13.70;;;12.03;;
6177;SDS011;3122;48.208;11.174;2023-06-05T05:11:06;12.97;;;11.57;;
6177;SDS011;3122;48.208;11.174;2023-06-05T05:16:06;13.67;;;11.60;;
6177;SDS011;3122;48.208;11.174;2023-06-05T05:21:10;14.60;;;11.90;;
6177;SDS011;3122;48.208;11.174;2023-06-05T05:26:11;13.83;;;11.90;;
6177;SDS011;3122;48.208;11.174;2023-06-05T05:31:11;13.17;;;11.77;;
6177;SDS011;3122;48.208;11.174;2023-06-05T05:36:12;13.60;;;12.20;;
6177;SDS011;3122;48.208;11.174;2023-06-05T05:41:14;13.87;;;11.70;;
6177;SDS011;3122;48.208;11.174;2023-06-05T05:46:15;15.40;;;12.80;;
6177;SDS011;3122;48.208;11.174;2023-06-05T05:51:16;17.10;;;13.13;;
6177;SDS011;3122;48.208;11.174;2023-06-05T05:56:16;17.57;;;12.43;;
6177;SDS011;3122;48.208;11.174;2023-06-05T06:01:17;15.00;;;11.93;;
6177;SDS011;3122;48.208;11.174;2023-06-05T06:06:17;17.90;;;11.87;;
6177;SDS011;3122;48.208;11.174;2023-06-05T06:11:18;13.43;;;11.30;;
6177;SDS011;3122;48.208;11.174;2023-06-05T06:16:18;15.93;;;12.03;;
6177;SDS011;3122;48.208;11.174;2023-06-05T06:21:19;19.00;;;12.77;;
6177;SDS011;3122;48.208;11.174;2023-06-05T06:26:20;13.77;;;11.63;;
6177;SDS011;3122;48.208;11.174;2023-06-05T06:31:21;15.77;;;12.10;;
6177;SDS011;3122;48.208;11.174;2023-06-05T06:36:22;13.47;;;11.57;;
6177;SDS011;3122;48.208;11.174;2023-06-05T06:41:23;13.73;;;10.70;;
6177;SDS011;3122;48.208;11.174;2023-06-05T06:46:24;12.87;;;11.57;;
6177;SDS011;3122;48.208;11.174;2023-06-05T06:51:26;12.60;;;11.30;;
6177;SDS011;3122;48.208;11.174;2023-06-05T06:56:27;15.27;;;10.90;;
6177;SDS011;3122;48.208;11.174;2023-06-05T07:01:29;16.10;;;10.57;;
6177;SDS011;3122;48.208;11.174;2023-06-05T07:06:30;14.30;;;11.30;;
6177;SDS011;3122;48.208;11.174;2023-06-05T07:11:30;15.07;;;10.90;;
6177;SDS011;3122;48.208;11.174;2023-06-05T07:16:31;11.73;;;10.20;;
6177;SDS011;3122;48.208;11.174;2023-06-05T07:21:31;12.30;;;10.40;;
6177;SDS011;3122;48.208;11.174;2023-06-05T07:26:37;13.20;;;11.80;;
6177;SDS011;3122;48.208;11.174;2023-06-05T07:31:38;13.10;;;10.03;;
6177;SDS011;3122;48.208;11.174;2023-06-05T07:36:39;10.70;;;9.40;;
6177;SDS011;3122;48.208;11.174;2023-06-05T07:41:39;10.60;;;9.57;;
6177;SDS011;3122;48.208;11.174;2023-06-05T07:46:41;12.83;;;10.50;;
6177;SDS011;3122;48.208;11.174;2023-06-05T07:51:43;13.27;;;10.67;;
6177;SDS011;3122;48.208;11.174;2023-06-05T07:56:46;11.40;;;9.93;;
6177;SDS011;3122;48.208;11.174;2023-06-05T08:01:50;10.37;;;9.27;;
6177;SDS011;3122;48.208;11.174;2023-06-05T08:06:52;9.97;;;8.93;;
6177;SDS011;3122;48.208;11.174;2023-06-05T08:11:52;10.53;;;9.43;;
6177;SDS011;3122;48.208;11.174;2023-06-05T08:16:53;11.17;;;9.03;;
6177;SDS011;3122;48.208;11.174;2023-06-05T08:21:54;12.03;;;9.93;;
6177;SDS011;3122;48.208;11.174;2023-06-05T08:26:56;13.90;;;10.87;;
6177;SDS011;3122;48.208;11.174;2023-06-05T08:31:59;11.40;;;10.30;;
6177;SDS011;3122;48.208;11.174;2023-06-05T08:36:59;13.30;;;9.20;;
6177;SDS011;3122;48.208;11.174;2023-06-05T08:42:00;11.13;;;9.23;;
6177;SDS011;3122;48.208;11.174;2023-06-05T08:47:03;15.20;;;9.97;;
6177;SDS011;3122;48.208;11.174;2023-06-05T08:52:07;14.00;;;9.60;;
6177;SDS011;3122;48.208;11.174;2023-06-05T08:57:08;10.60;;;9.60;;
6177;SDS011;3122;48.208;11.174;2023-06-05T09:02:09;11.07;;;9.90;;
6177;SDS011;3122;48.208;11.174;2023-06-05T09:07:11;10.70;;;9.60;;
6177;SDS011;3122;48.208;11.174;2023-06-05T09:12:12;13.20;;;10.60;;
6177;SDS011;3122;48.208;11.174;2023-06-05T09:17:13;11.23;;;9.93;;
6177;SDS011;3122;48.208;11.174;2023-06-05T09:22:15;11.53;;;9.47;;
6177;SDS011;3122;48.208;11.174;2023-06-05T09:27:16;10.87;;;8.83;;
6177;SDS011;3122;48.208;11.174;2023-06-05T09:32:17;10.60;;;9.50;;
6177;SDS011;3122;48.208;11.174;2023-06-05T09:37:20;11.90;;;8.83;;
6177;SDS011;3122;48.208;11.174;2023-06-05T09:42:35;8.93;;;8.00;;
6177;SDS011;3122;48.208;11.174;2023-06-05T09:47:36;10.47;;;9.47;;
6177;SDS011;3122;48.208;11.174;2023-06-05T09:52:36;11.97;;;9.27;;
6177;SDS011;3122;48.208;11.174;2023-06-05T09:57:39;8.93;;;7.57;;
6177;SDS011;3122;48.208;11.174;2023-06-05T10:02:39;9.53;;;8.63;;
6177;SDS011;3122;48.208;11.174;2023-06-05T10:07:40;9.23;;;8.13;;
6177;SDS011;3122;48.208;11.174;2023-06-05T10:12:41;11.43;;;8.90;;
6177;SDS011;3122;48.208;11.174;2023-06-05T10:17:43;12.10;;;8.87;;
6177;SDS011;3122;48.208;11.174;2023-06-05T10:22:44;9.20;;;7.40;;
6177;SDS011;3122;48.208;11.174;2023-06-05T10:38:33;9.27;;;8.37;;
6177;SDS011;3122;48.208;11.174;2023-06-05T10:43:45;9.37;;;8.37;;
6177;SDS011;3122;48.208;11.174;2023-06-05T10:49:06;9.80;;;8.00;;
6177;SDS011;3122;48.208;11.174;2023-06-05T10:59:24;8.90;;;8.00;;
6177;SDS011;3122;48.208;11.174;2023-06-05T11:04:49;12.27;;;9.00;;
6177;SDS011;3122;48.208;11.174;2023-06-05T11:15:05;8.83;;;7.60;;
6177;SDS011;3122;48.208;11.174;2023-06-05T11:25:27;8.43;;;7.50;;
6177;SDS011;3122;48.208;11.174;2023-06-05T11:30:32;8.17;;;7.30;;
6177;SDS011;3122;48.208;11.174;2023-06-05T11:35:39;8.53;;;7.63;;
6177;SDS011;3122;48.208;11.174;2023-06-05T11:40:42;8.20;;;7.40;;
6177;SDS011;3122;48.208;11.174;2023-06-05T11:45:50;9.10;;;8.10;;
6177;SDS011;3122;48.208;11.174;2023-06-05T11:55:56;9.33;;;7.90;;
6177;SDS011;3122;48.208;11.174;2023-06-05T12:01:05;8.60;;;7.57;;
6177;SDS011;3122;48.208;11.174;2023-06-05T12:06:06;10.83;;;7.77;;
6177;SDS011;3122;48.208;11.174;2023-06-05T12:11:26;8.07;;;7.37;;
6177;SDS011;3122;48.208;11.174;2023-06-05T12:16:34;10.63;;;8.00;;
6177;SDS011;3122;48.208;11.174;2023-06-05T12:21:35;9.63;;;8.63;;
6177;SDS011;3122;48.208;11.174;2023-06-05T12:31:53;8.73;;;7.83;;
6177;SDS011;3122;48.208;11.174;2023-06-05T12:36:54;8.60;;;7.80;;
6177;SDS011;3122;48.208;11.174;2023-06-05T12:41:55;10.83;;;7.83;;
6177;SDS011;3122;48.208;11.174;2023-06-05T12:46:56;8.87;;;8.00;;
6177;SDS011;3122;48.208;11.174;2023-06-05T12:51:57;8.07;;;7.27;;
6177;SDS011;3122;48.208;11.174;2023-06-05T12:56:57;8.50;;;7.60;;
6177;SDS011;3122;48.208;11.174;2023-06-05T13:01:58;8.43;;;7.00;;
6177;SDS011;3122;48.208;11.174;2023-06-05T13:06:58;8.10;;;6.90;;
6177;SDS011;3122;48.208;11.174;2023-06-05T13:11:59;8.83;;;7.93;;
6177;SDS011;3122;48.208;11.174;2023-06-05T13:17:00;9.63;;;7.70;;
6177;SDS011;3122;48.208;11.174;2023-06-05T13:22:01;7.83;;;6.93;;
6177;SDS011;3122;48.208;11.174;2023-06-05T13:27:02;12.13;;;7.83;;
6177;SDS011;3122;48.208;11.174;2023-06-05T13:32:02;8.30;;;7.50;;
6177;SDS011;3122;48.208;11.174;2023-06-05T13:37:03;8.40;;;7.30;;
6177;SDS011;3122;48.208;11.174;2023-06-05T13:42:04;8.53;;;7.60;;
6177;SDS011;3122;48.208;11.174;2023-06-05T13:47:05;8.40;;;7.50;;
6177;SDS011;3122;48.208;11.174;2023-06-05T13:52:08;8.60;;;7.80;;
6177;SDS011;3122;48.208;11.174;2023-06-05T13:57:10;7.57;;;6.87;;
6177;SDS011;3122;48.208;11.174;2023-06-05T14:02:12;7.80;;;7.10;;
6177;SDS011;3122;48.208;11.174;2023-06-05T14:07:13;8.47;;;6.57;;
6177;SDS011;3122;48.208;11.174;2023-06-05T14:12:13;8.70;;;7.57;;
6177;SDS011;3122;48.208;11.174;2023-06-05T14:17:14;9.37;;;7.10;;
6177;SDS011;3122;48.208;11.174;2023-06-05T14:22:14;8.67;;;7.20;;
6177;SDS011;3122;48.208;11.174;2023-06-05T14:27:15;9.87;;;7.90;;
6177;SDS011;3122;48.208;11.174;2023-06-05T14:32:18;11.63;;;7.63;;
6177;SDS011;3122;48.208;11.174;2023-06-05T14:37:18;7.73;;;6.90;;
6177;SDS011;3122;48.208;11.174;2023-06-05T14:42:19;7.90;;;7.20;;
6177;SDS011;3122;48.208;11.174;2023-06-05T14:47:20;11.50;;;7.63;;
6177;SDS011;3122;48.208;11.174;2023-06-05T14:52:20;9.20;;;6.63;;
6177;SDS011;3122;48.208;11.174;2023-06-05T14:57:21;7.40;;;6.50;;
6177;SDS011;3122;48.208;11.174;2023-06-05T15:02:21;6.83;;;6.23;;
6177;SDS011;3122;48.208;11.174;2023-06-05T15:07:22;9.93;;;6.30;;
6177;SDS011;3122;48.208;11.174;2023-06-05T15:12:23;6.27;;;5.67;;
6177;SDS011;3122;48.208;11.174;2023-06-05T15:17:23;7.73;;;6.80;;
6177;SDS011;3122;48.208;11.174;2023-06-05T15:22:24;7.30;;;6.60;;
6177;SDS011;3122;48.208;11.174;2023-06-05T15:27:24;7.23;;;6.30;;
6177;SDS011;3122;48.208;11.174;2023-06-05T15:32:25;6.90;;;6.20;;
6177;SDS011;3122;48.208;11.174;2023-06-05T15:37:25;9.20;;;6.50;;
6177;SDS011;3122;48.208;11.174;2023-06-05T15:42:33;6.83;;;6.13;;
6177;SDS011;3122;48.208;11.174;2023-06-05T15:47:35;7.27;;;6.57;;
6177;SDS011;3122;48.208;11.174;2023-06-05T15:52:37;6.63;;;5.90;;
6177;SDS011;3122;48.208;11.174;2023-06-05T15:57:38;6.50;;;5.70;;
6177;SDS011;3122;48.208;11.174;2023-06-05T16:02:40;6.27;;;5.60;;
6177;SDS011;3122;48.208;11.174;2023-06-05T16:07:41;5.77;;;5.37;;
6177;SDS011;3122;48.208;11.174;2023-06-05T16:12:42;8.20;;;5.53;;
6177;SDS011;3122;48.208;11.174;2023-06-05T16:17:42;15.63;;;4.07;;
6177;SDS011;3122;48.208;11.174;2023-06-05T16:22:43;4.40;;;4.00;;
6177;SDS011;3122;48.208;11.174;2023-06-05T16:27:44;5.00;;;4.27;;
6177;SDS011;3122;48.208;11.174;2023-06-05T16:32:45;8.00;;;5.30;;
6177;SDS011;3122;48.208;11.174;2023-06-05T16:37:46;7.63;;;5.50;;
6177;SDS011;3122;48.208;11.174;2023-06-05T16:42:47;5.90;;;5.30;;
6177;SDS011;3122;48.208;11.174;2023-06-05T16:47:48;6.47;;;5.03;;
6177;SDS011;3122;48.208;11.174;2023-06-05T16:52:48;7.47;;;5.87;;
6177;SDS011;3122;48.208;11.174;2023-06-05T16:57:49;5.70;;;4.90;;
6177;SDS011;3122;48.208;11.174;2023-06-05T17:02:49;9.73;;;5.57;;
6177;SDS011;3122;48.208;11.174;2023-06-05T17:07:50;6.60;;;5.10;;
6177;SDS011;3122;48.208;11.174;2023-06-05T17:12:50;5.93;;;5.43;;
6177;SDS011;3122;48.208;11.174;2023-06-05T17:17:51;8.07;;;6.10;;
6177;SDS011;3122;48.208;11.174;2023-06-05T17:22:51;5.97;;;5.47;;
6177;SDS011;3122;48.208;11.174;2023-06-05T17:27:53;6.13;;;5.63;;
6177;SDS011;3122;48.208;11.174;2023-06-05T17:32:55;7.97;;;6.00;;
6177;SDS011;3122;48.208;11.174;2023-06-05T17:37:56;8.13;;;6.20;;
6177;SDS011;3122;48.208;11.174;2023-06-05T17:42:56;7.50;;;5.80;;
6177;SDS011;3122;48.208;11.174;2023-06-05T17:47:57;6.63;;;5.90;;
6177;SDS011;3122;48.208;11.174;2023-06-05T17:52:58;6.37;;;5.77;;
6177;SDS011;3122;48.208;11.174;2023-06-05T17:57:58;6.77;;;6.13;;
6177;SDS011;3122;48.208;11.174;2023-06-05T18:02:59;7.53;;;6.50;;
6177;SDS011;3122;48.208;11.174;2023-06-05T18:07:59;6.43;;;5.83;;
6177;SDS011;3122;48.208;11.174;2023-06-05T18:13:00;6.80;;;6.10;;
6177;SDS011;3122;48.208;11.174;2023-06-05T18:18:00;6.87;;;6.00;;
6177;SDS011;3122;48.208;11.174;2023-06-05T18:23:01;7.13;;;6.10;;
6177;SDS011;3122;48.208;11.174;2023-06-05T18:28:02;8.20;;;6.53;;
6177;SDS011;3122;48.208;11.174;2023-06-05T18:33:02;8.00;;;6.33;;
6177;SDS011;3122;48.208;11.174;2023-06-05T18:38:03;7.10;;;6.40;;
6177;SDS011;3122;48.208;11.174;2023-06-05T18:43:03;6.87;;;6.20;;
6177;SDS011;3122;48.208;11.174;2023-06-05T18:48:04;6.50;;;5.90;;
6177;SDS011;3122;48.208;11.174;2023-06-05T18:53:05;6.47;;;5.53;;
6177;SDS011;3122;48.208;11.174;2023-06-05T18:58:05;5.40;;;5.00;;
6177;SDS011;3122;48.208;11.174;2023-06-05T19:03:06;8.07;;;6.30;;
6177;SDS011;3122;48.208;11.174;2023-06-05T19:08:08;7.80;;;5.37;;
6177;SDS011;3122;48.208;11.174;2023-06-05T19:13:09;8.10;;;6.67;;
6177;SDS011;3122;48.208;11.174;2023-06-05T19:18:09;8.93;;;7.30;;
6177;SDS011;3122;48.208;11.174;2023-06-05T19:23:10;7.20;;;6.50;;
6177;SDS011;3122;48.208;11.174;2023-06-05T19:28:11;8.00;;;7.23;;
6177;SDS011;3122;48.208;11.174;2023-06-05T19:33:11;7.83;;;7.10;;
6177;SDS011;3122;48.208;11.174;2023-06-05T19:38:12;11.30;;;7.30;;
6177;SDS011;3122;48.208;11.174;2023-06-05T19:43:13;8.20;;;7.37;;
6177;SDS011;3122;48.208;11.174;2023-06-05T19:48:13;9.10;;;8.20;;
6177;SDS011;3122;48.208;11.174;2023-06-05T19:53:14;8.50;;;7.70;;
6177;SDS011;3122;48.208;11.174;2023-06-05T19:58:15;10.03;;;9.03;;
6177;SDS011;3122;48.208;11.174;2023-06-05T20:03:15;10.77;;;8.30;;
6177;SDS011;3122;48.208;11.174;2023-06-05T20:08:16;8.30;;;7.60;;
6177;SDS011;3122;48.208;11.174;2023-06-05T20:13:17;6.60;;;6.10;;
6177;SDS011;3122;48.208;11.174;2023-06-05T20:18:17;7.50;;;6.80;;
6177;SDS011;3122;48.208;11.174;2023-06-05T20:23:18;5.10;;;4.70;;
6177;SDS011;3122;48.208;11.174;2023-06-05T20:28:18;4.73;;;4.33;;
6177;SDS011;3122;48.208;11.174;2023-06-05T20:33:19;5.37;;;4.00;;
6177;SDS011;3122;48.208;11.174;2023-06-05T20:38:20;3.13;;;2.93;;
6177;SDS011;3122;48.208;11.174;2023-06-05T20:43:21;3.00;;;2.80;;
6177;SDS011;3122;48.208;11.174;2023-06-05T20:48:21;2.33;;;2.23;;
6177;SDS011;3122;48.208;11.174;2023-06-05T20:53:25;3.07;;;2.50;;
6177;SDS011;3122;48.208;11.174;2023-06-05T20:58:26;2.53;;;2.33;;
6177;SDS011;3122;48.208;11.174;2023-06-05T21:03:27;2.63;;;2.20;;
6177;SDS011;3122;48.208;11.174;2023-06-05T21:08:27;2.60;;;2.40;;
6177;SDS011;3122;48.208;11.174;2023-06-05T21:13:28;2.77;;;2.57;;
6177;SDS011;3122;48.208;11.174;2023-06-05T21:18:28;4.50;;;2.37;;
6177;SDS011;3122;48.208;11.174;2023-06-05T21:23:29;2.23;;;2.13;;
6177;SDS011;3122;48.208;11.174;2023-06-05T21:28:29;2.73;;;2.50;;
6177;SDS011;3122;48.208;11.174;2023-06-05T21:33:31;2.37;;;2.27;;
6177;SDS011;3122;48.208;11.174;2023-06-05T21:38:33;2.70;;;2.50;;
6177;SDS011;3122;48.208;11.174;2023-06-05T21:43:34;2.60;;;2.40;;
6177;SDS011;3122;48.208;11.174;2023-06-05T21:48:34;3.70;;;2.50;;
6177;SDS011;3122;48.208;11.174;2023-06-05T21:53:35;2.93;;;2.60;;
6177;SDS011;3122;48.208;11.174;2023-06-05T21:58:36;3.00;;;2.50;;
6177;SDS011;3122;48.208;11.174;2023-06-05T22:03:36;2.23;;;2.13;;
6177;SDS011;3122;48.208;11.174;2023-06-05T22:08:37;3.13;;;2.93;;
6177;SDS011;3122;48.208;11.174;2023-06-05T22:13:37;3.10;;;2.80;;
6177;SDS011;3122;48.208;11.174;2023-06-05T22:18:41;3.10;;;2.90;;
6177;SDS011;3122;48.208;11.174;2023-06-05T22:23:42;5.27;;;2.80;;
6177;SDS011;3122;48.208;11.174;2023-06-05T22:28:44;3.63;;;3.30;;
6177;SDS011;3122;48.208;11.174;2023-06-05T22:33:45;2.87;;;2.67;;
6177;SDS011;3122;48.208;11.174;2023-06-05T22:38:48;2.80;;;2.60;;
6177;SDS011;3122;48.208;11.174;2023-06-05T22:43:48;3.90;;;3.00;;
6177;SDS011;3122;48.208;11.174;2023-06-05T22:48:49;3.27;;;2.97;;
6177;SDS011;3122;48.208;11.174;2023-06-05T22:53:53;3.20;;;2.90;;
6177;SDS011;3122;48.208;11.174;2023-06-05T22:58:54;3.57;;;2.70;;
6177;SDS011;3122;48.208;11.174;2023-06-05T23:03:54;3.43;;;3.23;;
6177;SDS011;3122;48.208;11.174;2023-06-05T23:08:55;4.47;;;2.80;;
6177;SDS011;3122;48.208;11.174;2023-06-05T23:13:56;3.13;;;2.83;;
6177;SDS011;3122;48.208;11.174;2023-06-05T23:18:57;4.40;;;4.00;;
6177;SDS011;3122;48.208;11.174;2023-06-05T23:23:57;3.03;;;2.83;;
6177;SDS011;3122;48.208;11.174;2023-06-05T23:28:58;3.43;;;3.20;;
6177;SDS011;3122;48.208;11.174;2023-06-05T23:33:58;3.70;;;3.40;;
6177;SDS011;3122;48.208;11.174;2023-06-05T23:38:59;3.73;;;3.30;;
6177;SDS011;3122;48.208;11.174;2023-06-05T23:44:00;3.67;;;3.37;;
6177;SDS011;3122;48.208;11.174;2023-06-05T23:49:01;2.97;;;2.77;;
6177;SDS011;3122;48.208;11.174;2023-06-05T23:54:03;3.57;;;3.27;;
6177;SDS011;3122;48.208;11.174;2023-06-05T23:59:03;3.47;;;3.27;;
